createdAt,value
2022-09-20T00:14:09.872Z,82.93
2022-09-20T00:44:45.428Z,84.45
2022-09-20T01:14:51.838Z,86.69
2022-09-20T01:45:02.712Z,87.44
2022-09-20T02:15:17.379Z,89.62
2022-09-20T02:45:26.727Z,89.80
2022-09-20T03:15:42.085Z,89.05
2022-09-20T03:45:57.447Z,88.68
2022-09-20T04:16:12.702Z,88.03
2022-09-20T04:46:36.888Z,88.10
2022-09-20T05:16:53.217Z,87.79
2022-09-20T05:47:05.096Z,86.16
2022-09-20T06:17:17.461Z,84.61
2022-09-20T06:47:23.116Z,83.70
2022-09-20T07:17:27.365Z,77.08
2022-09-20T07:47:35.301Z,78.84
2022-09-20T08:17:40.260Z,78.98
2022-09-20T08:47:49.208Z,75.99
2022-09-20T09:17:54.476Z,75.40
2022-09-20T09:48:00.457Z,65.07
2022-09-20T10:18:18.856Z,70.09
2022-09-20T10:48:28.653Z,58.17
2022-09-20T11:18:39.269Z,65.72
2022-09-20T11:48:46.481Z,59.13
2022-09-20T12:19:04.498Z,51.61
2022-09-20T12:49:53.371Z,60.08
2022-09-20T13:19:58.078Z,67.32
2022-09-20T13:50:03.198Z,45.03
2022-09-20T14:20:08.720Z,49.56
2022-09-20T14:50:25.684Z,62.09
2022-09-20T15:20:29.680Z,72.37
2022-09-20T15:50:33.918Z,78.82
2022-09-20T16:20:38.044Z,69.83
2022-09-20T16:50:42.216Z,78.76
2022-09-20T17:20:46.803Z,82.71
2022-09-20T17:50:57.107Z,82.88
2022-09-20T18:21:01.259Z,84.98
2022-09-20T18:51:06.505Z,84.99
2022-09-20T19:21:19.227Z,85.89
2022-09-20T19:51:23.487Z,86.82
2022-09-20T20:21:34.047Z,86.49
2022-09-20T20:51:38.252Z,86.66
2022-09-20T21:21:43.751Z,87.40
2022-09-20T21:51:50.055Z,86.90
2022-09-20T22:21:54.160Z,86.75
2022-09-20T22:51:58.291Z,86.96
2022-09-20T23:22:02.493Z,87.78
2022-09-20T23:52:06.631Z,86.76
